sensor_id;sensor_type;location;lat;lon;timestamp;P1;durP1;ratioP1;P2;durP2;ratioP2
9848;SDS011;4963;51.444;6.528;2022-09-02T00:01:29;4.43;;;1.95;;
9848;SDS011;4963;51.444;6.528;2022-09-02T00:04:00;2.50;;;1.70;;
9848;SDS011;4963;51.444;6.528;2022-09-02T00:06:29;3.13;;;1.77;;
9848;SDS011;4963;51.444;6.528;2022-09-02T00:08:57;2.28;;;1.85;;
9848;SDS011;4963;51.444;6.528;2022-09-02T00:11:26;3.90;;;2.10;;
9848;SDS011;4963;51.444;6.528;2022-09-02T00:13:55;2.83;;;2.10;;
9848;SDS011;4963;51.444;6.528;2022-09-02T00:16:22;4.80;;;2.20;;
9848;SDS011;4963;51.444;6.528;2022-09-02T00:18:50;2.55;;;1.70;;
9848;SDS011;4963;51.444;6.528;2022-09-02T00:21:19;5.45;;;1.85;;
9848;SDS011;4963;51.444;6.528;2022-09-02T00:23:47;3.13;;;1.73;;
9848;SDS011;4963;51.444;6.528;2022-09-02T00:26:15;2.30;;;1.85;;
9848;SDS011;4963;51.444;6.528;2022-09-02T00:28:42;3.97;;;2.03;;
9848;SDS011;4963;51.444;6.528;2022-09-02T00:31:10;3.72;;;1.67;;
9848;SDS011;4963;51.444;6.528;2022-09-02T00:33:37;4.30;;;1.73;;
9848;SDS011;4963;51.444;6.528;2022-09-02T00:36:05;3.28;;;2.15;;
9848;SDS011;4963;51.444;6.528;2022-09-02T00:38:34;3.45;;;1.88;;
9848;SDS011;4963;51.444;6.528;2022-09-02T00:41:04;2.92;;;1.63;;
9848;SDS011;4963;51.444;6.528;2022-09-02T00:43:40;4.10;;;2.20;;
9848;SDS011;4963;51.444;6.528;2022-09-02T00:46:10;3.28;;;1.63;;
9848;SDS011;4963;51.444;6.528;2022-09-02T00:48:39;4.00;;;2.00;;
9848;SDS011;4963;51.444;6.528;2022-09-02T00:51:09;3.17;;;2.00;;
9848;SDS011;4963;51.444;6.528;2022-09-02T00:53:39;2.50;;;2.00;;
9848;SDS011;4963;51.444;6.528;2022-09-02T00:56:10;5.15;;;2.05;;
9848;SDS011;4963;51.444;6.528;2022-09-02T00:58:39;6.65;;;2.15;;
9848;SDS011;4963;51.444;6.528;2022-09-02T01:01:07;4.53;;;1.98;;
9848;SDS011;4963;51.444;6.528;2022-09-02T01:03:36;9.25;;;1.90;;
9848;SDS011;4963;51.444;6.528;2022-09-02T01:06:04;3.60;;;2.10;;
9848;SDS011;4963;51.444;6.528;2022-09-02T01:08:32;4.28;;;1.92;;
9848;SDS011;4963;51.444;6.528;2022-09-02T01:11:02;4.72;;;1.90;;
9848;SDS011;4963;51.444;6.528;2022-09-02T01:13:30;2.95;;;2.00;;
9848;SDS011;4963;51.444;6.528;2022-09-02T01:16:14;3.30;;;2.05;;
9848;SDS011;4963;51.444;6.528;2022-09-02T01:18:52;3.45;;;1.80;;
9848;SDS011;4963;51.444;6.528;2022-09-02T01:21:23;4.72;;;1.98;;
9848;SDS011;4963;51.444;6.528;2022-09-02T01:23:51;3.95;;;2.15;;
9848;SDS011;4963;51.444;6.528;2022-09-02T01:26:19;4.68;;;2.10;;
9848;SDS011;4963;51.444;6.528;2022-09-02T01:28:46;4.13;;;1.88;;
9848;SDS011;4963;51.444;6.528;2022-09-02T01:31:13;2.45;;;1.75;;
9848;SDS011;4963;51.444;6.528;2022-09-02T01:33:40;4.80;;;2.03;;
9848;SDS011;4963;51.444;6.528;2022-09-02T01:36:07;5.47;;;2.20;;
9848;SDS011;4963;51.444;6.528;2022-09-02T01:38:34;3.50;;;1.83;;
9848;SDS011;4963;51.444;6.528;2022-09-02T01:41:02;2.65;;;1.73;;
9848;SDS011;4963;51.444;6.528;2022-09-02T01:43:29;3.70;;;1.83;;
9848;SDS011;4963;51.444;6.528;2022-09-02T01:45:57;3.92;;;2.20;;
9848;SDS011;4963;51.444;6.528;2022-09-02T01:48:24;3.80;;;2.03;;
9848;SDS011;4963;51.444;6.528;2022-09-02T01:50:52;4.20;;;2.20;;
9848;SDS011;4963;51.444;6.528;2022-09-02T01:53:20;4.97;;;2.15;;
9848;SDS011;4963;51.444;6.528;2022-09-02T01:55:47;2.97;;;2.05;;
9848;SDS011;4963;51.444;6.528;2022-09-02T01:58:16;2.50;;;2.00;;
9848;SDS011;4963;51.444;6.528;2022-09-02T02:00:43;4.97;;;1.80;;
9848;SDS011;4963;51.444;6.528;2022-09-02T02:03:10;3.08;;;1.83;;
9848;SDS011;4963;51.444;6.528;2022-09-02T02:05:37;4.07;;;2.00;;
9848;SDS011;4963;51.444;6.528;2022-09-02T02:08:04;3.63;;;2.10;;
9848;SDS011;4963;51.444;6.528;2022-09-02T02:10:31;2.67;;;1.80;;
9848;SDS011;4963;51.444;6.528;2022-09-02T02:12:58;4.23;;;2.07;;
9848;SDS011;4963;51.444;6.528;2022-09-02T02:15:27;4.05;;;2.30;;
9848;SDS011;4963;51.444;6.528;2022-09-02T02:17:54;4.30;;;2.27;;
9848;SDS011;4963;51.444;6.528;2022-09-02T02:20:20;3.85;;;2.13;;
9848;SDS011;4963;51.444;6.528;2022-09-02T02:22:48;3.13;;;2.13;;
9848;SDS011;4963;51.444;6.528;2022-09-02T02:25:16;3.00;;;2.10;;
9848;SDS011;4963;51.444;6.528;2022-09-02T02:27:43;3.93;;;2.20;;
9848;SDS011;4963;51.444;6.528;2022-09-02T02:30:11;3.67;;;2.23;;
9848;SDS011;4963;51.444;6.528;2022-09-02T02:32:42;3.47;;;1.97;;
9848;SDS011;4963;51.444;6.528;2022-09-02T02:35:11;4.63;;;2.28;;
9848;SDS011;4963;51.444;6.528;2022-09-02T02:37:39;4.20;;;2.10;;
9848;SDS011;4963;51.444;6.528;2022-09-02T02:40:06;3.63;;;2.00;;
9848;SDS011;4963;51.444;6.528;2022-09-02T02:42:36;6.13;;;2.67;;
9848;SDS011;4963;51.444;6.528;2022-09-02T02:45:03;5.97;;;2.47;;
9848;SDS011;4963;51.444;6.528;2022-09-02T02:47:34;4.00;;;2.37;;
9848;SDS011;4963;51.444;6.528;2022-09-02T02:50:04;5.10;;;2.17;;
9848;SDS011;4963;51.444;6.528;2022-09-02T02:52:32;4.57;;;2.30;;
9848;SDS011;4963;51.444;6.528;2022-09-02T02:54:59;4.10;;;2.03;;
9848;SDS011;4963;51.444;6.528;2022-09-02T02:57:26;6.03;;;2.35;;
9848;SDS011;4963;51.444;6.528;2022-09-02T02:59:53;4.37;;;2.20;;
9848;SDS011;4963;51.444;6.528;2022-09-02T03:02:22;7.10;;;2.00;;
9848;SDS011;4963;51.444;6.528;2022-09-02T03:04:48;4.33;;;1.90;;
9848;SDS011;4963;51.444;6.528;2022-09-02T03:07:19;5.60;;;2.20;;
9848;SDS011;4963;51.444;6.528;2022-09-02T03:09:46;7.23;;;2.30;;
9848;SDS011;4963;51.444;6.528;2022-09-02T03:12:13;3.47;;;2.00;;
9848;SDS011;4963;51.444;6.528;2022-09-02T03:14:42;4.13;;;2.20;;
9848;SDS011;4963;51.444;6.528;2022-09-02T03:17:09;4.63;;;2.07;;
9848;SDS011;4963;51.444;6.528;2022-09-02T03:19:36;3.10;;;1.90;;
9848;SDS011;4963;51.444;6.528;2022-09-02T03:22:03;3.27;;;2.30;;
9848;SDS011;4963;51.444;6.528;2022-09-02T03:24:32;3.00;;;1.90;;
9848;SDS011;4963;51.444;6.528;2022-09-02T03:26:59;2.83;;;2.03;;
9848;SDS011;4963;51.444;6.528;2022-09-02T03:29:26;5.13;;;2.00;;
9848;SDS011;4963;51.444;6.528;2022-09-02T03:31:52;9.33;;;2.27;;
9848;SDS011;4963;51.444;6.528;2022-09-02T03:34:19;5.77;;;2.33;;
9848;SDS011;4963;51.444;6.528;2022-09-02T03:36:46;4.63;;;2.03;;
9848;SDS011;4963;51.444;6.528;2022-09-02T03:39:13;4.20;;;1.80;;
9848;SDS011;4963;51.444;6.528;2022-09-02T03:41:42;2.40;;;1.90;;
9848;SDS011;4963;51.444;6.528;2022-09-02T03:44:09;5.70;;;2.20;;
9848;SDS011;4963;51.444;6.528;2022-09-02T03:46:36;4.67;;;2.37;;
9848;SDS011;4963;51.444;6.528;2022-09-02T03:49:03;3.83;;;1.87;;
9848;SDS011;4963;51.444;6.528;2022-09-02T03:51:30;3.17;;;2.20;;
9848;SDS011;4963;51.444;6.528;2022-09-02T03:53:57;3.70;;;2.10;;
9848;SDS011;4963;51.444;6.528;2022-09-02T03:56:26;3.87;;;2.13;;
9848;SDS011;4963;51.444;6.528;2022-09-02T03:58:55;4.00;;;2.50;;
9848;SDS011;4963;51.444;6.528;2022-09-02T04:01:22;3.60;;;2.37;;
9848;SDS011;4963;51.444;6.528;2022-09-02T04:03:51;4.03;;;1.70;;
9848;SDS011;4963;51.444;6.528;2022-09-02T04:06:18;4.87;;;2.53;;
9848;SDS011;4963;51.444;6.528;2022-09-02T04:08:46;4.00;;;1.80;;
9848;SDS011;4963;51.444;6.528;2022-09-02T04:11:15;3.47;;;1.93;;
9848;SDS011;4963;51.444;6.528;2022-09-02T04:13:44;4.07;;;2.10;;
9848;SDS011;4963;51.444;6.528;2022-09-02T04:16:13;6.40;;;2.33;;
9848;SDS011;4963;51.444;6.528;2022-09-02T04:18:41;3.93;;;2.10;;
9848;SDS011;4963;51.444;6.528;2022-09-02T04:21:08;3.67;;;2.20;;
9848;SDS011;4963;51.444;6.528;2022-09-02T04:23:36;4.10;;;2.07;;
9848;SDS011;4963;51.444;6.528;2022-09-02T04:26:04;3.20;;;2.00;;
9848;SDS011;4963;51.444;6.528;2022-09-02T04:28:32;6.17;;;2.40;;
9848;SDS011;4963;51.444;6.528;2022-09-02T04:31:02;3.20;;;2.33;;
9848;SDS011;4963;51.444;6.528;2022-09-02T04:33:31;7.47;;;2.50;;
9848;SDS011;4963;51.444;6.528;2022-09-02T04:35:58;5.53;;;2.53;;
9848;SDS011;4963;51.444;6.528;2022-09-02T04:38:25;4.97;;;2.53;;
9848;SDS011;4963;51.444;6.528;2022-09-02T04:40:52;3.83;;;2.53;;
9848;SDS011;4963;51.444;6.528;2022-09-02T04:43:19;6.97;;;2.80;;
9848;SDS011;4963;51.444;6.528;2022-09-02T04:45:46;7.17;;;2.40;;
9848;SDS011;4963;51.444;6.528;2022-09-02T04:48:13;2.70;;;2.30;;
9848;SDS011;4963;51.444;6.528;2022-09-02T04:50:41;6.63;;;3.23;;
9848;SDS011;4963;51.444;6.528;2022-09-02T04:53:08;5.83;;;3.17;;
9848;SDS011;4963;51.444;6.528;2022-09-02T04:55:37;6.20;;;2.77;;
9848;SDS011;4963;51.444;6.528;2022-09-02T04:58:05;9.40;;;3.20;;
9848;SDS011;4963;51.444;6.528;2022-09-02T05:00:32;4.73;;;2.50;;
9848;SDS011;4963;51.444;6.528;2022-09-02T05:02:59;6.87;;;2.93;;
9848;SDS011;4963;51.444;6.528;2022-09-02T05:05:26;8.97;;;3.77;;
9848;SDS011;4963;51.444;6.528;2022-09-02T05:07:54;8.13;;;3.50;;
9848;SDS011;4963;51.444;6.528;2022-09-02T05:10:22;7.20;;;3.70;;
9848;SDS011;4963;51.444;6.528;2022-09-02T05:12:49;10.37;;;3.87;;
9848;SDS011;4963;51.444;6.528;2022-09-02T05:15:16;7.80;;;3.67;;
9848;SDS011;4963;51.444;6.528;2022-09-02T05:17:43;12.57;;;4.63;;
9848;SDS011;4963;51.444;6.528;2022-09-02T05:20:11;7.27;;;3.73;;
9848;SDS011;4963;51.444;6.528;2022-09-02T05:22:38;9.80;;;4.40;;
9848;SDS011;4963;51.444;6.528;2022-09-02T05:25:07;8.73;;;4.70;;
9848;SDS011;4963;51.444;6.528;2022-09-02T05:27:35;9.50;;;4.33;;
9848;SDS011;4963;51.444;6.528;2022-09-02T05:30:02;9.52;;;4.95;;
9848;SDS011;4963;51.444;6.528;2022-09-02T05:32:30;12.60;;;5.17;;
9848;SDS011;4963;51.444;6.528;2022-09-02T05:34:57;7.13;;;4.17;;
9848;SDS011;4963;51.444;6.528;2022-09-02T05:37:24;6.97;;;4.37;;
9848;SDS011;4963;51.444;6.528;2022-09-02T05:39:51;13.40;;;4.60;;
9848;SDS011;4963;51.444;6.528;2022-09-02T05:42:19;7.23;;;4.23;;
9848;SDS011;4963;51.444;6.528;2022-09-02T05:44:46;7.97;;;4.37;;
9848;SDS011;4963;51.444;6.528;2022-09-02T05:47:13;11.97;;;4.80;;
9848;SDS011;4963;51.444;6.528;2022-09-02T05:49:40;9.77;;;3.58;;
9848;SDS011;4963;51.444;6.528;2022-09-02T05:52:07;8.73;;;3.80;;
9848;SDS011;4963;51.444;6.528;2022-09-02T05:54:37;9.15;;;3.92;;
9848;SDS011;4963;51.444;6.528;2022-09-02T05:57:05;12.15;;;3.38;;
9848;SDS011;4963;51.444;6.528;2022-09-02T05:59:36;8.32;;;3.40;;
9848;SDS011;4963;51.444;6.528;2022-09-02T06:02:06;8.57;;;3.80;;
9848;SDS011;4963;51.444;6.528;2022-09-02T06:04:37;11.98;;;3.97;;
9848;SDS011;4963;51.444;6.528;2022-09-02T06:07:05;7.43;;;3.55;;
9848;SDS011;4963;51.444;6.528;2022-09-02T06:09:32;11.27;;;3.67;;
9848;SDS011;4963;51.444;6.528;2022-09-02T06:11:59;8.43;;;3.63;;
9848;SDS011;4963;51.444;6.528;2022-09-02T06:14:26;13.00;;;4.32;;
9848;SDS011;4963;51.444;6.528;2022-09-02T06:16:54;10.35;;;3.40;;
9848;SDS011;4963;51.444;6.528;2022-09-02T06:19:22;10.55;;;3.38;;
9848;SDS011;4963;51.444;6.528;2022-09-02T06:21:52;9.10;;;3.55;;
9848;SDS011;4963;51.444;6.528;2022-09-02T06:24:19;15.07;;;3.70;;
9848;SDS011;4963;51.444;6.528;2022-09-02T06:26:47;9.45;;;3.95;;
9848;SDS011;4963;51.444;6.528;2022-09-02T06:29:14;6.05;;;3.10;;
9848;SDS011;4963;51.444;6.528;2022-09-02T06:31:42;11.50;;;3.35;;
9848;SDS011;4963;51.444;6.528;2022-09-02T06:34:11;16.87;;;3.70;;
9848;SDS011;4963;51.444;6.528;2022-09-02T06:36:40;10.07;;;3.43;;
9848;SDS011;4963;51.444;6.528;2022-09-02T06:39:09;14.07;;;4.20;;
9848;SDS011;4963;51.444;6.528;2022-09-02T06:41:38;18.85;;;6.60;;
9848;SDS011;4963;51.444;6.528;2022-09-02T06:44:07;8.10;;;3.00;;
9848;SDS011;4963;51.444;6.528;2022-09-02T06:46:36;7.63;;;3.15;;
9848;SDS011;4963;51.444;6.528;2022-09-02T06:49:05;9.00;;;3.33;;
9848;SDS011;4963;51.444;6.528;2022-09-02T06:51:35;7.57;;;2.80;;
9848;SDS011;4963;51.444;6.528;2022-09-02T06:54:03;9.83;;;3.23;;
9848;SDS011;4963;51.444;6.528;2022-09-02T06:56:32;7.00;;;3.60;;
9848;SDS011;4963;51.444;6.528;2022-09-02T06:58:59;6.97;;;3.35;;
9848;SDS011;4963;51.444;6.528;2022-09-02T07:01:28;10.13;;;3.60;;
9848;SDS011;4963;51.444;6.528;2022-09-02T07:03:56;8.93;;;3.53;;
9848;SDS011;4963;51.444;6.528;2022-09-02T07:06:43;6.07;;;3.30;;
9848;SDS011;4963;51.444;6.528;2022-09-02T07:09:13;10.47;;;3.83;;
9848;SDS011;4963;51.444;6.528;2022-09-02T07:11:42;9.20;;;3.77;;
9848;SDS011;4963;51.444;6.528;2022-09-02T07:14:11;6.67;;;3.60;;
9848;SDS011;4963;51.444;6.528;2022-09-02T07:16:42;9.03;;;3.97;;
9848;SDS011;4963;51.444;6.528;2022-09-02T07:19:10;8.77;;;3.63;;
9848;SDS011;4963;51.444;6.528;2022-09-02T07:21:37;9.50;;;3.42;;
9848;SDS011;4963;51.444;6.528;2022-09-02T07:24:07;10.73;;;4.07;;
9848;SDS011;4963;51.444;6.528;2022-09-02T07:26:36;6.80;;;3.40;;
9848;SDS011;4963;51.444;6.528;2022-09-02T07:29:03;9.37;;;3.43;;
9848;SDS011;4963;51.444;6.528;2022-09-02T07:31:33;10.95;;;3.17;;
9848;SDS011;4963;51.444;6.528;2022-09-02T07:34:01;11.57;;;3.75;;
9848;SDS011;4963;51.444;6.528;2022-09-02T07:36:28;9.57;;;4.00;;
9848;SDS011;4963;51.444;6.528;2022-09-02T07:38:55;7.47;;;3.55;;
9848;SDS011;4963;51.444;6.528;2022-09-02T07:41:24;11.82;;;3.92;;
9848;SDS011;4963;51.444;6.528;2022-09-02T07:43:51;12.40;;;3.20;;
9848;SDS011;4963;51.444;6.528;2022-09-02T07:46:18;9.43;;;3.40;;
9848;SDS011;4963;51.444;6.528;2022-09-02T07:48:45;6.38;;;3.00;;
9848;SDS011;4963;51.444;6.528;2022-09-02T07:51:14;4.90;;;2.95;;
9848;SDS011;4963;51.444;6.528;2022-09-02T07:53:42;9.80;;;3.22;;
9848;SDS011;4963;51.444;6.528;2022-09-02T07:56:09;4.25;;;3.03;;
9848;SDS011;4963;51.444;6.528;2022-09-02T07:58:38;5.50;;;2.90;;
9848;SDS011;4963;51.444;6.528;2022-09-02T08:01:05;10.93;;;2.90;;
9848;SDS011;4963;51.444;6.528;2022-09-02T08:03:33;6.13;;;2.92;;
9848;SDS011;4963;51.444;6.528;2022-09-02T08:06:02;7.85;;;3.40;;
9848;SDS011;4963;51.444;6.528;2022-09-02T08:08:29;7.28;;;3.10;;
9848;SDS011;4963;51.444;6.528;2022-09-02T08:10:56;8.20;;;3.20;;
9848;SDS011;4963;51.444;6.528;2022-09-02T08:13:24;7.20;;;3.20;;
9848;SDS011;4963;51.444;6.528;2022-09-02T08:15:53;9.63;;;3.17;;
9848;SDS011;4963;51.444;6.528;2022-09-02T08:18:20;9.77;;;3.00;;
9848;SDS011;4963;51.444;6.528;2022-09-02T08:20:47;9.68;;;3.22;;
9848;SDS011;4963;51.444;6.528;2022-09-02T08:23:14;7.43;;;2.67;;
9848;SDS011;4963;51.444;6.528;2022-09-02T08:25:41;5.68;;;2.58;;
9848;SDS011;4963;51.444;6.528;2022-09-02T08:28:09;6.45;;;2.60;;
9848;SDS011;4963;51.444;6.528;2022-09-02T08:30:36;6.13;;;1.95;;
9848;SDS011;4963;51.444;6.528;2022-09-02T08:33:04;4.32;;;2.08;;
9848;SDS011;4963;51.444;6.528;2022-09-02T08:35:31;3.55;;;2.05;;
9848;SDS011;4963;51.444;6.528;2022-09-02T08:37:59;6.35;;;2.15;;
9848;SDS011;4963;51.444;6.528;2022-09-02T08:40:27;7.60;;;2.47;;
9848;SDS011;4963;51.444;6.528;2022-09-02T08:43:00;5.32;;;2.17;;
9848;SDS011;4963;51.444;6.528;2022-09-02T08:45:31;5.20;;;2.10;;
9848;SDS011;4963;51.444;6.528;2022-09-02T08:48:05;6.22;;;2.20;;
9848;SDS011;4963;51.444;6.528;2022-09-02T08:50:38;3.38;;;2.45;;
9848;SDS011;4963;51.444;6.528;2022-09-02T08:53:09;3.20;;;2.13;;
9848;SDS011;4963;51.444;6.528;2022-09-02T08:55:42;3.67;;;2.10;;
9848;SDS011;4963;51.444;6.528;2022-09-02T08:58:12;7.30;;;2.15;;
9848;SDS011;4963;51.444;6.528;2022-09-02T09:00:45;4.55;;;2.00;;
9848;SDS011;4963;51.444;6.528;2022-09-02T09:03:23;6.57;;;2.35;;
9848;SDS011;4963;51.444;6.528;2022-09-02T09:05:56;6.72;;;2.00;;
9848;SDS011;4963;51.444;6.528;2022-09-02T09:08:31;8.73;;;2.05;;
9848;SDS011;4963;51.444;6.528;2022-09-02T09:11:05;2.10;;;1.65;;
9848;SDS011;4963;51.444;6.528;2022-09-02T09:13:48;4.03;;;1.90;;
9848;SDS011;4963;51.444;6.528;2022-09-02T09:16:26;4.30;;;2.08;;
9848;SDS011;4963;51.444;6.528;2022-09-02T09:18:59;6.07;;;2.70;;
9848;SDS011;4963;51.444;6.528;2022-09-02T09:21:32;4.82;;;2.42;;
9848;SDS011;4963;51.444;6.528;2022-09-02T09:24:00;7.30;;;2.53;;
9848;SDS011;4963;51.444;6.528;2022-09-02T09:26:33;4.10;;;2.55;;
9848;SDS011;4963;51.444;6.528;2022-09-02T09:29:05;8.32;;;2.85;;
9848;SDS011;4963;51.444;6.528;2022-09-02T09:31:32;5.90;;;2.40;;
9848;SDS011;4963;51.444;6.528;2022-09-02T09:34:03;5.78;;;2.20;;
9848;SDS011;4963;51.444;6.528;2022-09-02T09:36:45;4.43;;;2.70;;
9848;SDS011;4963;51.444;6.528;2022-09-02T09:39:19;3.92;;;1.92;;
9848;SDS011;4963;51.444;6.528;2022-09-02T09:41:48;3.42;;;2.00;;
9848;SDS011;4963;51.444;6.528;2022-09-02T09:47:05;6.65;;;2.13;;
9848;SDS011;4963;51.444;6.528;2022-09-02T09:49:36;3.72;;;2.00;;
9848;SDS011;4963;51.444;6.528;2022-09-02T09:52:04;3.45;;;2.22;;
9848;SDS011;4963;51.444;6.528;2022-09-02T09:54:31;3.00;;;1.73;;
9848;SDS011;4963;51.444;6.528;2022-09-02T09:57:11;4.32;;;2.03;;
9848;SDS011;4963;51.444;6.528;2022-09-02T09:59:41;5.57;;;2.30;;
9848;SDS011;4963;51.444;6.528;2022-09-02T10:02:17;5.43;;;2.28;;
9848;SDS011;4963;51.444;6.528;2022-09-02T10:04:47;3.50;;;2.30;;
9848;SDS011;4963;51.444;6.528;2022-09-02T10:07:16;3.85;;;2.17;;
9848;SDS011;4963;51.444;6.528;2022-09-02T10:10:08;2.75;;;1.90;;
9848;SDS011;4963;51.444;6.528;2022-09-02T10:12:42;3.45;;;1.92;;
9848;SDS011;4963;51.444;6.528;2022-09-02T10:15:11;3.90;;;2.42;;
9848;SDS011;4963;51.444;6.528;2022-09-02T10:17:40;3.95;;;2.17;;
9848;SDS011;4963;51.444;6.528;2022-09-02T10:20:16;4.88;;;2.20;;
9848;SDS011;4963;51.444;6.528;2022-09-02T10:22:57;4.28;;;2.30;;
9848;SDS011;4963;51.444;6.528;2022-09-02T10:25:47;4.15;;;2.00;;
9848;SDS011;4963;51.444;6.528;2022-09-02T10:28:27;11.25;;;3.45;;
9848;SDS011;4963;51.444;6.528;2022-09-02T10:31:07;2.90;;;1.70;;
9848;SDS011;4963;51.444;6.528;2022-09-02T10:33:41;2.30;;;1.83;;
9848;SDS011;4963;51.444;6.528;2022-09-02T10:36:21;3.83;;;1.90;;
9848;SDS011;4963;51.444;6.528;2022-09-02T10:38:57;4.00;;;2.05;;
9848;SDS011;4963;51.444;6.528;2022-09-02T10:41:38;4.70;;;1.98;;
9848;SDS011;4963;51.444;6.528;2022-09-02T10:44:25;4.30;;;1.90;;
9848;SDS011;4963;51.444;6.528;2022-09-02T10:47:00;3.47;;;1.77;;
9848;SDS011;4963;51.444;6.528;2022-09-02T10:49:41;4.22;;;1.88;;
9848;SDS011;4963;51.444;6.528;2022-09-02T10:52:30;2.30;;;1.65;;
9848;SDS011;4963;51.444;6.528;2022-09-02T10:55:11;3.15;;;1.67;;
9848;SDS011;4963;51.444;6.528;2022-09-02T10:57:44;7.18;;;1.65;;
9848;SDS011;4963;51.444;6.528;2022-09-02T11:00:16;5.43;;;1.65;;
9848;SDS011;4963;51.444;6.528;2022-09-02T11:02:45;4.28;;;1.70;;
9848;SDS011;4963;51.444;6.528;2022-09-02T11:05:17;1.88;;;1.63;;
9848;SDS011;4963;51.444;6.528;2022-09-02T11:07:50;5.18;;;1.75;;
9848;SDS011;4963;51.444;6.528;2022-09-02T11:10:22;2.30;;;1.80;;
9848;SDS011;4963;51.444;6.528;2022-09-02T11:12:53;3.03;;;1.70;;
9848;SDS011;4963;51.444;6.528;2022-09-02T11:15:31;4.13;;;1.80;;
9848;SDS011;4963;51.444;6.528;2022-09-02T11:18:10;2.60;;;1.70;;
9848;SDS011;4963;51.444;6.528;2022-09-02T11:20:43;2.22;;;1.50;;
9848;SDS011;4963;51.444;6.528;2022-09-02T11:23:21;2.80;;;1.80;;
9848;SDS011;4963;51.444;6.528;2022-09-02T11:25:56;2.25;;;1.83;;
9848;SDS011;4963;51.444;6.528;2022-09-02T11:28:30;3.30;;;1.70;;
9848;SDS011;4963;51.444;6.528;2022-09-02T11:31:02;3.22;;;1.80;;
9848;SDS011;4963;51.444;6.528;2022-09-02T11:33:36;2.95;;;1.55;;
9848;SDS011;4963;51.444;6.528;2022-09-02T11:36:16;3.20;;;1.65;;
9848;SDS011;4963;51.444;6.528;2022-09-02T11:38:46;4.20;;;1.70;;
9848;SDS011;4963;51.444;6.528;2022-09-02T11:41:24;2.72;;;1.55;;
9848;SDS011;4963;51.444;6.528;2022-09-02T11:43:54;4.05;;;1.63;;
9848;SDS011;4963;51.444;6.528;2022-09-02T11:46:36;2.88;;;2.03;;
9848;SDS011;4963;51.444;6.528;2022-09-02T11:49:32;2.10;;;1.70;;
9848;SDS011;4963;51.444;6.528;2022-09-02T11:52:17;1.73;;;1.52;;
9848;SDS011;4963;51.444;6.528;2022-09-02T11:54:57;2.58;;;1.83;;
9848;SDS011;4963;51.444;6.528;2022-09-02T11:57:31;2.28;;;1.60;;
9848;SDS011;4963;51.444;6.528;2022-09-02T12:00:10;3.15;;;1.58;;
9848;SDS011;4963;51.444;6.528;2022-09-02T12:02:55;3.13;;;2.30;;
9848;SDS011;4963;51.444;6.528;2022-09-02T12:05:45;4.30;;;1.95;;
9848;SDS011;4963;51.444;6.528;2022-09-02T12:11:32;2.30;;;1.60;;
9848;SDS011;4963;51.444;6.528;2022-09-02T12:17:34;3.88;;;1.92;;
9848;SDS011;4963;51.444;6.528;2022-09-02T12:20:05;4.57;;;2.00;;
9848;SDS011;4963;51.444;6.528;2022-09-02T12:22:34;2.95;;;1.67;;
9848;SDS011;4963;51.444;6.528;2022-09-02T12:25:04;4.28;;;2.15;;
9848;SDS011;4963;51.444;6.528;2022-09-02T12:28:20;5.18;;;2.20;;
9848;SDS011;4963;51.444;6.528;2022-09-02T12:33:37;3.88;;;2.13;;
9848;SDS011;4963;51.444;6.528;2022-09-02T12:36:05;3.28;;;1.60;;
9848;SDS011;4963;51.444;6.528;2022-09-02T12:38:33;2.20;;;1.60;;
9848;SDS011;4963;51.444;6.528;2022-09-02T12:41:10;4.03;;;1.60;;
9848;SDS011;4963;51.444;6.528;2022-09-02T12:43:51;3.47;;;1.60;;
9848;SDS011;4963;51.444;6.528;2022-09-02T12:46:26;3.10;;;1.50;;
9848;SDS011;4963;51.444;6.528;2022-09-02T12:49:09;2.75;;;1.70;;
9848;SDS011;4963;51.444;6.528;2022-09-02T12:51:51;2.38;;;1.60;;
9848;SDS011;4963;51.444;6.528;2022-09-02T12:54:21;3.20;;;1.60;;
9848;SDS011;4963;51.444;6.528;2022-09-02T12:56:57;2.70;;;1.90;;
9848;SDS011;4963;51.444;6.528;2022-09-02T12:59:29;5.20;;;2.45;;
9848;SDS011;4963;51.444;6.528;2022-09-02T13:02:03;3.25;;;1.30;;
9848;SDS011;4963;51.444;6.528;2022-09-02T13:04:42;3.13;;;1.70;;
9848;SDS011;4963;51.444;6.528;2022-09-02T13:10:36;3.83;;;1.90;;
9848;SDS011;4963;51.444;6.528;2022-09-02T13:13:36;2.78;;;1.58;;
9848;SDS011;4963;51.444;6.528;2022-09-02T13:16:29;4.18;;;1.95;;
9848;SDS011;4963;51.444;6.528;2022-09-02T13:19:21;2.28;;;1.85;;
9848;SDS011;4963;51.444;6.528;2022-09-02T13:22:12;2.90;;;1.90;;
9848;SDS011;4963;51.444;6.528;2022-09-02T13:24:59;5.88;;;1.60;;
9848;SDS011;4963;51.444;6.528;2022-09-02T13:30:38;2.50;;;1.80;;
9848;SDS011;4963;51.444;6.528;2022-09-02T13:33:19;1.88;;;1.30;;
9848;SDS011;4963;51.444;6.528;2022-09-02T13:35:51;3.80;;;1.60;;
9848;SDS011;4963;51.444;6.528;2022-09-02T13:38:21;4.28;;;1.70;;
9848;SDS011;4963;51.444;6.528;2022-09-02T13:40:49;4.97;;;1.92;;
9848;SDS011;4963;51.444;6.528;2022-09-02T13:43:17;2.88;;;1.70;;
9848;SDS011;4963;51.444;6.528;2022-09-02T13:45:45;3.97;;;1.80;;
9848;SDS011;4963;51.444;6.528;2022-09-02T13:48:13;1.75;;;1.42;;
9848;SDS011;4963;51.444;6.528;2022-09-02T13:50:44;1.95;;;1.40;;
9848;SDS011;4963;51.444;6.528;2022-09-02T13:53:13;2.28;;;1.77;;
9848;SDS011;4963;51.444;6.528;2022-09-02T13:55:47;3.85;;;1.80;;
9848;SDS011;4963;51.444;6.528;2022-09-02T13:58:24;3.70;;;1.40;;
9848;SDS011;4963;51.444;6.528;2022-09-02T14:03:48;4.43;;;1.60;;
9848;SDS011;4963;51.444;6.528;2022-09-02T14:06:18;6.10;;;1.90;;
9848;SDS011;4963;51.444;6.528;2022-09-02T14:08:48;6.85;;;1.70;;
9848;SDS011;4963;51.444;6.528;2022-09-02T14:11:17;2.22;;;1.55;;
9848;SDS011;4963;51.444;6.528;2022-09-02T14:13:45;1.75;;;1.60;;
9848;SDS011;4963;51.444;6.528;2022-09-02T14:16:22;3.13;;;1.60;;
9848;SDS011;4963;51.444;6.528;2022-09-02T14:19:03;2.58;;;1.40;;
9848;SDS011;4963;51.444;6.528;2022-09-02T14:21:33;2.33;;;1.70;;
9848;SDS011;4963;51.444;6.528;2022-09-02T14:24:00;3.63;;;1.65;;
9848;SDS011;4963;51.444;6.528;2022-09-02T14:26:29;2.25;;;1.60;;
9848;SDS011;4963;51.444;6.528;2022-09-02T14:29:00;3.00;;;1.42;;
9848;SDS011;4963;51.444;6.528;2022-09-02T14:31:28;1.85;;;1.50;;
9848;SDS011;4963;51.444;6.528;2022-09-02T14:33:58;7.10;;;1.60;;
9848;SDS011;4963;51.444;6.528;2022-09-02T14:36:30;1.73;;;1.35;;
9848;SDS011;4963;51.444;6.528;2022-09-02T14:39:09;6.70;;;1.60;;
9848;SDS011;4963;51.444;6.528;2022-09-02T14:41:42;2.60;;;1.70;;
9848;SDS011;4963;51.444;6.528;2022-09-02T14:44:13;3.50;;;1.60;;
9848;SDS011;4963;51.444;6.528;2022-09-02T14:46:43;2.42;;;1.88;;
9848;SDS011;4963;51.444;6.528;2022-09-02T14:49:20;1.33;;;1.23;;
9848;SDS011;4963;51.444;6.528;2022-09-02T14:51:51;1.90;;;1.50;;
9848;SDS011;4963;51.444;6.528;2022-09-02T14:54:33;2.95;;;1.65;;
9848;SDS011;4963;51.444;6.528;2022-09-02T14:57:01;4.35;;;1.73;;
9848;SDS011;4963;51.444;6.528;2022-09-02T14:59:29;6.13;;;1.83;;
9848;SDS011;4963;51.444;6.528;2022-09-02T15:01:56;5.20;;;1.60;;
9848;SDS011;4963;51.444;6.528;2022-09-02T15:04:24;2.25;;;1.55;;
9848;SDS011;4963;51.444;6.528;2022-09-02T15:06:52;2.17;;;1.58;;
9848;SDS011;4963;51.444;6.528;2022-09-02T15:09:20;2.40;;;1.67;;
9848;SDS011;4963;51.444;6.528;2022-09-02T15:11:48;3.25;;;1.67;;
9848;SDS011;4963;51.444;6.528;2022-09-02T15:14:18;3.65;;;1.42;;
9848;SDS011;4963;51.444;6.528;2022-09-02T15:16:45;2.25;;;1.90;;
9848;SDS011;4963;51.444;6.528;2022-09-02T15:19:12;2.55;;;1.48;;
9848;SDS011;4963;51.444;6.528;2022-09-02T15:21:39;3.97;;;1.85;;
9848;SDS011;4963;51.444;6.528;2022-09-02T15:24:07;4.68;;;1.73;;
9848;SDS011;4963;51.444;6.528;2022-09-02T15:26:34;2.35;;;1.30;;
9848;SDS011;4963;51.444;6.528;2022-09-02T15:29:01;3.78;;;1.48;;
9848;SDS011;4963;51.444;6.528;2022-09-02T15:31:29;3.22;;;1.50;;
9848;SDS011;4963;51.444;6.528;2022-09-02T15:33:56;1.83;;;1.50;;
9848;SDS011;4963;51.444;6.528;2022-09-02T15:36:23;2.45;;;1.30;;
9848;SDS011;4963;51.444;6.528;2022-09-02T15:38:51;2.85;;;1.70;;
9848;SDS011;4963;51.444;6.528;2022-09-02T15:41:20;2.25;;;1.60;;
9848;SDS011;4963;51.444;6.528;2022-09-02T15:43:48;1.90;;;1.52;;
9848;SDS011;4963;51.444;6.528;2022-09-02T15:46:20;2.22;;;1.50;;
9848;SDS011;4963;51.444;6.528;2022-09-02T15:48:49;2.17;;;1.52;;
9848;SDS011;4963;51.444;6.528;2022-09-02T15:51:17;2.40;;;1.60;;
9848;SDS011;4963;51.444;6.528;2022-09-02T15:53:45;4.68;;;1.70;;
9848;SDS011;4963;51.444;6.528;2022-09-02T15:56:16;4.15;;;1.58;;
9848;SDS011;4963;51.444;6.528;2022-09-02T15:58:46;3.10;;;1.90;;